Time;durP1;ratioP1;P1;durP2;ratioP2;P2;SDS_P1;SDS_P2;PMS_P1;PMS_P2;Temp;Humidity;BMP_temperature;BMP_pressure;BME280_temperature;BME280_humidity;BME280_pressure;Samples;Min_cycle;Max_cycle;Signal;HPM_P1;HPM_P2
2020/12/06 00:00:28;;;;;;;9.32;4.50;;;9.00;77.00;;;;;;5109109;28;20455;-76
2020/12/06 00:02:57;;;;;;;10.65;4.70;;;9.00;76.90;;;;;;5099281;27;20787;-76
2020/12/06 00:05:23;;;;;;;9.70;5.03;;;8.90;77.10;;;;;;5075105;28;20398;-75
2020/12/06 00:07:49;;;;;;;11.05;4.93;;;8.90;77.50;;;;;;5084076;28;20453;-76
2020/12/06 00:10:19;;;;;;;9.27;5.10;;;8.90;77.70;;;;;;5095055;28;20397;-75
2020/12/06 00:12:46;;;;;;;10.73;4.88;;;8.90;77.80;;;;;;5109234;28;20407;-76
2020/12/06 00:15:13;;;;;;;9.88;4.85;;;8.80;77.80;;;;;;5099942;28;20537;-75
2020/12/06 00:17:42;;;;;;;10.05;5.28;;;8.80;77.90;;;;;;5113438;28;20444;-75
2020/12/06 00:20:12;;;;;;;10.90;5.38;;;8.80;78.00;;;;;;5081349;28;20398;-75
2020/12/06 00:22:38;;;;;;;9.55;5.43;;;8.80;78.10;;;;;;5075206;28;20491;-75
2020/12/06 00:25:06;;;;;;;11.65;5.65;;;8.70;78.10;;;;;;5112959;28;20929;-75
2020/12/06 00:27:34;;;;;;;9.98;5.38;;;8.70;78.30;;;;;;5098963;28;20849;-75
2020/12/06 00:30:04;;;;;;;10.73;5.80;;;8.70;78.30;;;;;;5111196;28;20404;-75
2020/12/06 00:32:31;;;;;;;9.57;5.68;;;8.70;78.70;;;;;;5094831;28;20401;-76
2020/12/06 00:35:00;;;;;;;11.07;5.60;;;8.70;79.10;;;;;;5091335;28;20435;-75
2020/12/06 00:37:27;;;;;;;10.57;5.83;;;8.70;78.80;;;;;;5112456;28;20396;-75
2020/12/06 00:39:55;;;;;;;10.73;5.78;;;8.70;78.90;;;;;;5108839;28;20474;-76
2020/12/06 00:42:22;;;;;;;11.48;6.05;;;8.70;79.10;;;;;;5094626;28;20453;-75
2020/12/06 00:44:48;;;;;;;9.48;5.80;;;8.60;79.20;;;;;;5108648;28;20941;-76
2020/12/06 00:47:15;;;;;;;14.38;6.28;;;8.70;79.40;;;;;;5094331;28;20482;-75
2020/12/06 00:49:44;;;;;;;9.95;6.00;;;8.60;79.30;;;;;;5091305;28;20779;-75
2020/12/06 00:52:10;;;;;;;10.80;5.72;;;8.60;79.10;;;;;;5094447;28;20499;-75
2020/12/06 00:54:36;;;;;;;12.47;6.00;;;8.60;79.70;;;;;;5090210;28;20495;-76
2020/12/06 00:57:05;;;;;;;10.40;5.80;;;8.60;79.10;;;;;;5094552;28;20451;-75
2020/12/06 00:59:32;;;;;;;12.00;6.05;;;8.60;79.20;;;;;;5115121;27;20410;-75
2020/12/06 01:01:59;;;;;;;10.77;6.05;;;8.60;79.10;;;;;;5094412;28;20452;-75
2020/12/06 01:04:25;;;;;;;12.60;6.15;;;8.60;79.20;;;;;;5112022;28;20457;-75
2020/12/06 01:06:51;;;;;;;13.80;6.33;;;8.60;79.40;;;;;;5089764;28;20404;-75
2020/12/06 01:09:18;;;;;;;11.60;6.10;;;8.60;79.50;;;;;;5112123;28;20404;-75
2020/12/06 01:11:48;;;;;;;11.07;6.15;;;8.60;79.50;;;;;;5075751;28;20460;-76
2020/12/06 01:14:14;;;;;;;11.90;5.68;;;8.60;79.40;;;;;;5073372;28;20758;-75
2020/12/06 01:16:41;;;;;;;11.35;5.75;;;8.60;79.00;;;;;;5099791;28;20845;-76
2020/12/06 01:19:07;;;;;;;12.18;5.75;;;8.60;79.10;;;;;;5096282;28;20465;-75
2020/12/06 01:21:33;;;;;;;9.02;5.63;;;8.60;79.20;;;;;;5096440;28;20519;-75
2020/12/06 01:24:00;;;;;;;11.03;5.87;;;8.60;79.20;;;;;;5111874;28;20400;-75
2020/12/06 01:26:26;;;;;;;11.30;5.82;;;8.60;79.20;;;;;;5089953;28;20427;-75
2020/12/06 01:28:53;;;;;;;13.48;5.57;;;8.60;79.40;;;;;;5093717;28;20840;-75
2020/12/06 01:31:19;;;;;;;11.13;5.70;;;8.60;79.00;;;;;;5107874;28;20400;-76
2020/12/06 01:33:47;;;;;;;10.18;5.35;;;8.60;79.00;;;;;;5110546;28;21429;-75
2020/12/06 01:36:13;;;;;;;9.90;5.68;;;8.60;78.90;;;;;;5093402;28;20396;-76
2020/12/06 01:38:40;;;;;;;11.70;6.07;;;8.60;79.10;;;;;;5072186;28;20429;-75
2020/12/06 01:41:06;;;;;;;11.30;6.18;;;8.60;79.30;;;;;;5073268;28;20430;-75
2020/12/06 01:43:32;;;;;;;11.35;6.32;;;8.70;79.50;;;;;;5102406;28;20436;-75
2020/12/06 01:46:01;;;;;;;11.00;6.22;;;8.70;79.40;;;;;;5093513;28;20400;-75
2020/12/06 01:48:30;;;;;;;15.50;7.07;;;8.60;79.60;;;;;;5106997;28;20404;-75
2020/12/06 01:50:56;;;;;;;12.68;6.95;;;8.70;80.00;;;;;;5111078;28;21271;-76
2020/12/06 01:53:23;;;;;;;14.25;6.65;;;8.70;80.30;;;;;;5089342;28;20400;-76
2020/12/06 01:55:52;;;;;;;13.15;7.15;;;8.70;80.10;;;;;;5111042;28;20413;-76
2020/12/06 01:58:18;;;;;;;13.98;6.82;;;8.80;80.00;;;;;;5107426;28;20461;-76
2020/12/06 02:00:47;;;;;;;16.45;7.40;;;8.80;79.80;;;;;;5129571;27;20492;-76
2020/12/06 02:03:14;;;;;;;13.63;7.43;;;8.80;80.40;;;;;;5105594;27;20394;-75
2020/12/06 02:05:40;;;;;;;14.32;7.38;;;8.80;80.40;;;;;;5072870;28;20393;-76
2020/12/06 02:08:09;;;;;;;13.57;7.85;;;8.70;80.50;;;;;;5072870;28;20476;-76
2020/12/06 02:10:36;;;;;;;13.32;7.80;;;8.70;80.60;;;;;;5088897;28;20444;-76
2020/12/06 02:13:06;;;;;;;15.77;7.55;;;8.70;80.60;;;;;;5111297;28;20412;-76
2020/12/06 02:15:36;;;;;;;13.77;7.60;;;8.70;80.70;;;;;;5107297;28;20443;-75
2020/12/06 02:18:04;;;;;;;14.50;7.70;;;8.70;80.80;;;;;;5087037;28;20467;-75
2020/12/06 02:20:31;;;;;;;13.20;7.47;;;8.70;80.70;;;;;;5082920;28;20865;-75
2020/12/06 02:22:59;;;;;;;14.75;7.50;;;8.60;80.80;;;;;;5092943;28;20400;-75
2020/12/06 02:25:28;;;;;;;14.93;7.72;;;8.60;80.90;;;;;;5107183;28;20416;-76
2020/12/06 02:27:55;;;;;;;13.70;7.90;;;8.60;81.20;;;;;;5092797;28;20447;-76
2020/12/06 02:30:21;;;;;;;13.98;7.72;;;8.60;81.00;;;;;;5107075;28;20469;-75
2020/12/06 02:32:48;;;;;;;13.80;7.50;;;8.60;81.20;;;;;;5093107;28;20388;-75
2020/12/06 02:35:14;;;;;;;15.27;7.40;;;8.60;81.00;;;;;;5088902;28;20466;-76
2020/12/06 02:37:40;;;;;;;12.65;8.00;;;8.60;81.30;;;;;;5093031;28;20397;-75
2020/12/06 02:40:07;;;;;;;11.40;6.93;;;8.60;81.30;;;;;;5107154;28;20462;-75
2020/12/06 02:42:33;;;;;;;11.38;7.65;;;8.60;80.90;;;;;;5089360;28;20405;-75
2020/12/06 02:45:00;;;;;;;13.68;7.90;;;8.70;80.90;;;;;;5072624;28;20499;-76
2020/12/06 02:47:28;;;;;;;13.17;7.53;;;8.70;80.70;;;;;;5087238;28;20460;-75
2020/12/06 02:49:57;;;;;;;12.98;7.90;;;8.70;80.70;;;;;;5072522;28;20445;-76
2020/12/06 02:52:24;;;;;;;15.63;8.10;;;8.70;80.90;;;;;;5083742;28;20408;-75
2020/12/06 02:54:52;;;;;;;14.50;8.50;;;8.70;81.00;;;;;;5092508;28;20856;-75
2020/12/06 02:57:19;;;;;;;14.05;8.30;;;8.70;81.20;;;;;;5089115;28;20436;-76
2020/12/06 02:59:45;;;;;;;15.88;8.75;;;8.70;81.40;;;;;;5124043;27;20465;-75
2020/12/06 03:02:12;;;;;;;14.85;8.60;;;8.70;81.10;;;;;;5123391;27;20420;-76
2020/12/06 03:04:40;;;;;;;13.43;7.78;;;8.70;81.00;;;;;;5114386;28;20457;-75
2020/12/06 03:07:07;;;;;;;14.90;8.35;;;8.70;80.90;;;;;;5092746;28;20764;-75
2020/12/06 03:09:33;;;;;;;13.93;7.75;;;8.70;80.90;;;;;;5114399;28;21025;-76
2020/12/06 03:12:00;;;;;;;12.23;7.75;;;8.80;80.80;;;;;;5110749;28;20436;-76
2020/12/06 03:14:26;;;;;;;14.90;7.80;;;8.70;80.40;;;;;;5096974;28;20408;-76
2020/12/06 03:16:57;;;;;;;13.18;8.52;;;8.70;80.70;;;;;;5113935;28;20900;-75
2020/12/06 03:19:25;;;;;;;14.88;8.30;;;8.70;81.00;;;;;;5110381;28;21167;-75
2020/12/06 03:21:54;;;;;;;16.15;8.68;;;8.60;81.10;;;;;;5095658;28;20495;-75
2020/12/06 03:24:21;;;;;;;16.17;8.55;;;8.50;81.30;;;;;;5092496;28;20848;-75
2020/12/06 03:26:47;;;;;;;15.53;8.83;;;8.50;81.50;;;;;;5113474;28;20481;-76
2020/12/06 03:29:13;;;;;;;12.98;8.60;;;8.50;81.80;;;;;;5110256;28;20512;-76
2020/12/06 03:31:40;;;;;;;14.20;8.30;;;8.50;81.70;;;;;;5113711;28;20420;-75
2020/12/06 03:34:06;;;;;;;13.38;8.43;;;8.40;82.00;;;;;;5110382;28;20431;-75
2020/12/06 03:36:32;;;;;;;14.98;8.80;;;8.50;81.80;;;;;;5096054;28;20943;-75
2020/12/06 03:39:01;;;;;;;15.20;9.37;;;8.40;81.90;;;;;;5092620;28;21209;-76
2020/12/06 03:41:28;;;;;;;17.08;9.98;;;8.40;82.40;;;;;;5113585;28;20462;-76
2020/12/06 03:43:54;;;;;;;17.08;9.80;;;8.50;82.20;;;;;;5092334;28;20922;-75
2020/12/06 03:46:20;;;;;;;16.33;9.97;;;8.40;82.50;;;;;;5113796;28;20401;-75
2020/12/06 03:48:47;;;;;;;17.63;10.05;;;8.40;82.70;;;;;;5113832;28;20405;-75
2020/12/06 03:51:15;;;;;;;16.15;9.55;;;8.40;82.90;;;;;;5110178;28;20404;-75
2020/12/06 03:53:44;;;;;;;14.90;9.50;;;8.30;83.10;;;;;;5113760;28;20481;-76
2020/12/06 03:56:13;;;;;;;14.32;8.93;;;8.30;83.20;;;;;;5109974;28;20424;-75
2020/12/06 03:58:45;;;;;;;14.38;8.68;;;8.30;82.90;;;;;;5095260;28;20471;-75
2020/12/06 04:01:12;;;;;;;13.05;8.10;;;8.30;82.50;;;;;;5097000;28;20511;-75
2020/12/06 04:03:38;;;;;;;16.00;8.32;;;8.30;82.40;;;;;;5095552;28;20435;-75
2020/12/06 04:06:07;;;;;;;11.57;7.32;;;8.30;82.20;;;;;;5109609;28;20737;-75
2020/12/06 04:08:33;;;;;;;14.13;7.47;;;8.30;81.90;;;;;;5113157;28;20800;-75
2020/12/06 04:11:02;;;;;;;13.45;6.88;;;8.30;81.70;;;;;;5108896;28;20549;-75
2020/12/06 04:13:28;;;;;;;12.23;6.65;;;8.30;81.60;;;;;;5113197;28;20706;-75
2020/12/06 04:15:55;;;;;;;10.73;6.40;;;8.30;81.40;;;;;;5109698;28;20469;-76
2020/12/06 04:18:21;;;;;;;10.68;6.47;;;8.30;81.20;;;;;;5086420;28;20409;-76
2020/12/06 04:20:47;;;;;;;12.57;6.35;;;8.30;81.40;;;;;;5090650;28;20449;-75
2020/12/06 04:23:14;;;;;;;11.98;6.13;;;8.30;81.40;;;;;;5112811;28;20845;-75
2020/12/06 04:25:40;;;;;;;12.67;6.47;;;8.30;81.30;;;;;;5112367;28;20470;-75
2020/12/06 04:28:10;;;;;;;9.80;6.13;;;8.40;81.40;;;;;;5109380;28;20408;-75
2020/12/06 04:30:37;;;;;;;12.48;6.38;;;8.40;81.10;;;;;;5112882;28;20482;-75
2020/12/06 04:33:04;;;;;;;12.15;6.28;;;8.40;80.90;;;;;;5091412;28;20392;-75
2020/12/06 04:35:33;;;;;;;10.77;6.35;;;8.40;80.70;;;;;;5095028;28;20501;-75
2020/12/06 04:37:59;;;;;;;13.80;6.78;;;8.40;80.90;;;;;;5080257;28;20734;-75
2020/12/06 04:40:28;;;;;;;12.32;6.60;;;8.40;80.90;;;;;;5092527;28;20402;-75
2020/12/06 04:42:55;;;;;;;12.90;6.53;;;8.40;81.10;;;;;;5097261;28;20949;-75
2020/12/06 04:45:22;;;;;;;13.38;7.10;;;8.40;80.80;;;;;;5094500;28;20428;-75
2020/12/06 04:47:54;;;;;;;13.75;6.75;;;8.40;80.90;;;;;;5109182;28;20909;-75
2020/12/06 04:50:34;;;;;;;13.32;7.03;;;8.50;81.20;;;;;;5094367;28;20400;-75
2020/12/06 04:53:03;;;;;;;14.70;7.72;;;8.40;81.10;;;;;;5108575;28;20802;-75
2020/12/06 04:55:33;;;;;;;14.87;7.57;;;8.50;81.50;;;;;;5114725;28;20431;-75
2020/12/06 04:58:02;;;;;;;14.38;8.15;;;8.50;81.30;;;;;;5098471;28;20494;-76
2020/12/06 05:00:36;;;;;;;15.85;8.65;;;8.40;81.30;;;;;;5116562;27;20391;-76
2020/12/06 05:03:10;;;;;;;15.50;8.47;;;8.50;81.40;;;;;;5117394;27;20474;-75
2020/12/06 05:05:37;;;;;;;13.05;8.05;;;8.40;81.40;;;;;;5110866;28;20428;-75
2020/12/06 05:08:13;;;;;;;12.38;7.30;;;8.40;81.40;;;;;;5094511;28;20487;-75
2020/12/06 05:10:48;;;;;;;13.43;7.20;;;8.40;81.30;;;;;;5108373;28;20439;-75
2020/12/06 05:13:16;;;;;;;12.02;7.10;;;8.50;81.00;;;;;;5112161;28;20408;-76
2020/12/06 05:15:44;;;;;;;14.30;7.00;;;8.50;80.80;;;;;;5108401;28;20418;-76
2020/12/06 05:18:10;;;;;;;12.70;7.28;;;8.50;80.90;;;;;;5073537;28;20929;-75
2020/12/06 05:20:37;;;;;;;17.08;7.68;;;8.50;81.00;;;;;;5090295;28;20497;-76
2020/12/06 05:23:04;;;;;;;13.37;7.27;;;8.50;80.90;;;;;;5093088;28;20415;-75
2020/12/06 05:25:32;;;;;;;11.93;7.10;;;8.50;80.70;;;;;;5089926;28;20443;-75
2020/12/06 05:27:58;;;;;;;10.85;6.75;;;8.50;80.80;;;;;;5111782;28;20547;-75
2020/12/06 05:30:25;;;;;;;13.48;7.25;;;8.50;80.40;;;;;;5090003;28;21020;-75
2020/12/06 05:32:52;;;;;;;10.73;6.82;;;8.40;80.50;;;;;;5093897;28;20466;-75
2020/12/06 05:35:19;;;;;;;13.70;7.03;;;8.40;80.60;;;;;;5089941;28;20465;-75
2020/12/06 05:37:46;;;;;;;12.60;6.90;;;8.40;80.80;;;;;;5093824;28;20428;-75
2020/12/06 05:40:16;;;;;;;13.07;6.80;;;8.50;80.40;;;;;;5091793;28;20736;-76
2020/12/06 05:42:44;;;;;;;11.18;6.53;;;8.60;80.20;;;;;;5110467;28;20523;-75
2020/12/06 05:45:11;;;;;;;11.18;7.13;;;8.60;79.70;;;;;;5093520;28;20400;-75
2020/12/06 05:47:38;;;;;;;12.60;6.90;;;8.70;79.90;;;;;;5072665;28;20970;-75
2020/12/06 05:50:08;;;;;;;14.57;7.80;;;8.70;80.00;;;;;;5073523;28;20437;-75
2020/12/06 05:52:35;;;;;;;13.18;7.43;;;8.70;80.20;;;;;;5104850;27;20938;-75
2020/12/06 05:55:03;;;;;;;14.20;7.93;;;8.70;80.00;;;;;;5111305;28;20407;-75
2020/12/06 05:57:43;;;;;;;13.45;7.97;;;8.70;80.10;;;;;;5107152;28;20479;-75
2020/12/06 06:00:12;;;;;;;13.73;8.23;;;8.70;79.80;;;;;;5106750;27;20459;-75
2020/12/06 06:02:43;;;;;;;13.77;8.30;;;8.70;79.80;;;;;;5099198;28;20927;-75
2020/12/06 06:05:15;;;;;;;15.02;8.00;;;8.80;79.90;;;;;;5111407;28;20481;-75
2020/12/06 06:07:44;;;;;;;18.90;10.73;;;8.80;79.90;;;;;;5107256;28;20400;-75
2020/12/06 06:10:20;;;;;;;13.93;7.83;;;8.80;79.70;;;;;;5111160;28;20404;-75
2020/12/06 06:12:52;;;;;;;13.47;7.80;;;8.80;79.70;;;;;;5088904;27;20435;-75
2020/12/06 06:15:19;;;;;;;14.50;7.93;;;8.80;79.40;;;;;;5093196;28;20910;-75
2020/12/06 06:17:49;;;;;;;13.73;7.78;;;8.80;79.50;;;;;;5107226;28;20465;-75
2020/12/06 06:20:17;;;;;;;14.90;7.78;;;8.80;79.40;;;;;;5110907;28;20408;-75
2020/12/06 06:22:46;;;;;;;14.87;8.27;;;8.90;79.30;;;;;;5107226;28;20444;-75
2020/12/06 06:25:13;;;;;;;15.13;8.47;;;8.90;79.20;;;;;;5092261;28;20829;-75
2020/12/06 06:27:40;;;;;;;15.77;8.25;;;8.90;79.10;;;;;;5092903;28;20396;-75
2020/12/06 06:30:08;;;;;;;14.70;7.85;;;8.90;79.10;;;;;;5068350;28;20430;-75
2020/12/06 06:32:40;;;;;;;13.93;8.05;;;8.90;79.00;;;;;;5072953;28;20796;-75
2020/12/06 06:35:08;;;;;;;12.38;7.38;;;8.90;79.10;;;;;;5093727;28;20433;-76
2020/12/06 06:37:36;;;;;;;12.52;7.18;;;9.00;78.50;;;;;;5079352;28;20499;-75
2020/12/06 06:40:06;;;;;;;13.38;7.13;;;9.10;78.30;;;;;;5106681;28;20511;-75
2020/12/06 06:42:35;;;;;;;14.38;7.70;;;9.10;78.20;;;;;;5116950;28;20428;-75
2020/12/06 06:45:10;;;;;;;14.40;7.75;;;9.00;78.30;;;;;;5113787;28;20408;-75
2020/12/06 06:47:41;;;;;;;12.38;7.63;;;9.00;78.40;;;;;;5117518;28;20388;-75
2020/12/06 06:50:09;;;;;;;11.65;7.47;;;9.00;78.70;;;;;;5096176;28;20415;-75
2020/12/06 06:52:40;;;;;;;13.85;8.23;;;8.90;78.70;;;;;;5116916;28;20468;-75
2020/12/06 06:55:10;;;;;;;15.73;7.88;;;8.90;78.90;;;;;;5089883;28;20509;-75
2020/12/06 06:57:44;;;;;;;13.75;8.07;;;8.90;79.10;;;;;;5079131;28;20401;-75
2020/12/06 07:00:10;;;;;;;14.13;8.57;;;8.80;79.20;;;;;;5098162;28;20895;-75
2020/12/06 07:02:41;;;;;;;13.38;8.40;;;8.80;79.30;;;;;;5099186;28;20427;-75
2020/12/06 07:05:20;;;;;;;12.27;7.63;;;8.90;79.10;;;;;;5113667;28;20447;-75
2020/12/06 07:07:49;;;;;;;14.07;7.82;;;8.90;79.10;;;;;;5117204;28;20465;-75
2020/12/06 07:10:20;;;;;;;14.05;7.60;;;8.90;78.50;;;;;;5116964;28;20408;-75
2020/12/06 07:12:47;;;;;;;13.10;7.93;;;9.00;78.50;;;;;;5114933;27;20451;-75
2020/12/06 07:15:15;;;;;;;12.75;7.88;;;9.00;78.40;;;;;;5117101;28;20432;-75
2020/12/06 07:17:42;;;;;;;16.25;7.90;;;9.10;78.10;;;;;;5109786;28;20497;-75
2020/12/06 07:20:13;;;;;;;13.25;8.13;;;9.10;78.20;;;;;;5078895;28;20445;-75
2020/12/06 07:22:43;;;;;;;12.23;7.38;;;9.10;78.20;;;;;;5076058;28;20897;-75
2020/12/06 07:25:10;;;;;;;14.98;7.47;;;9.10;78.20;;;;;;5115454;27;20462;-75
2020/12/06 07:27:38;;;;;;;12.38;7.35;;;9.20;77.90;;;;;;5113170;28;20746;-75
2020/12/06 07:30:09;;;;;;;11.48;7.03;;;9.30;77.40;;;;;;5117020;28;20424;-74
2020/12/06 07:32:36;;;;;;;11.40;6.80;;;9.30;77.00;;;;;;5113584;28;20433;-75
2020/12/06 07:35:06;;;;;;;13.23;6.53;;;9.50;76.10;;;;;;5116773;28;20497;-75
2020/12/06 07:37:33;;;;;;;11.55;6.40;;;9.60;75.80;;;;;;5113548;28;20400;-75
2020/12/06 07:40:02;;;;;;;15.25;7.28;;;9.70;75.50;;;;;;5098862;28;20400;-75
2020/12/06 07:42:29;;;;;;;11.77;6.55;;;9.80;74.90;;;;;;5111798;28;20891;-75
2020/12/06 07:44:58;;;;;;;11.93;6.97;;;9.90;74.50;;;;;;5096405;28;20768;-75
2020/12/06 07:47:25;;;;;;;13.95;6.65;;;10.10;73.50;;;;;;5111654;28;20439;-75
2020/12/06 07:49:52;;;;;;;10.88;6.10;;;10.20;73.20;;;;;;5112086;28;20501;-75
2020/12/06 07:52:27;;;;;;;12.23;6.35;;;10.30;72.90;;;;;;5113442;28;20436;-75
2020/12/06 07:54:57;;;;;;;13.50;6.65;;;10.40;72.10;;;;;;5103951;27;20416;-75
2020/12/06 07:57:44;;;;;;;11.55;6.32;;;10.60;71.80;;;;;;5113025;28;20424;-75
2020/12/06 08:00:17;;;;;;;12.05;6.10;;;10.60;71.60;;;;;;5100926;27;20731;-75
2020/12/06 08:02:47;;;;;;;14.73;6.50;;;10.50;72.00;;;;;;5116046;27;20807;-75
2020/12/06 08:05:22;;;;;;;13.60;6.80;;;10.50;72.10;;;;;;5113145;27;20843;-75
2020/12/06 08:07:58;;;;;;;11.98;6.95;;;10.60;71.60;;;;;;5113247;27;20694;-75
2020/12/06 08:10:29;;;;;;;12.75;7.43;;;10.70;71.70;;;;;;5076556;28;20430;-75
2020/12/06 08:12:58;;;;;;;12.90;6.93;;;10.80;71.30;;;;;;5075272;28;20417;-75
2020/12/06 08:15:29;;;;;;;13.10;8.20;;;10.90;71.00;;;;;;5084588;28;20477;-75
2020/12/06 08:17:56;;;;;;;14.50;7.95;;;10.90;71.20;;;;;;5090213;28;20786;-75
2020/12/06 08:20:27;;;;;;;13.55;7.50;;;11.00;71.50;;;;;;5098631;28;20405;-75
2020/12/06 08:22:57;;;;;;;14.15;7.43;;;11.00;71.50;;;;;;5113200;28;20500;-75
2020/12/06 08:25:31;;;;;;;11.95;7.22;;;11.10;71.40;;;;;;5091300;28;20484;-76
2020/12/06 08:28:00;;;;;;;11.73;6.90;;;11.40;70.00;;;;;;5112964;28;20418;-76
2020/12/06 08:30:28;;;;;;;13.48;7.40;;;11.50;70.00;;;;;;5104296;28;20732;-75
2020/12/06 08:33:04;;;;;;;14.75;7.63;;;11.60;69.80;;;;;;5074557;28;20772;-75
2020/12/06 08:35:48;;;;;;;15.90;8.15;;;11.70;68.90;;;;;;5092421;28;20411;-76
2020/12/06 08:38:27;;;;;;;12.85;7.80;;;11.80;69.30;;;;;;5093948;28;20717;-75
2020/12/06 08:41:00;;;;;;;13.15;7.78;;;11.90;68.80;;;;;;5091280;28;20404;-75
2020/12/06 08:43:43;;;;;;;11.82;7.13;;;11.90;68.80;;;;;;5094928;28;20442;-76
2020/12/06 08:46:14;;;;;;;12.90;7.90;;;12.10;67.90;;;;;;5090470;28;20953;-76
2020/12/06 08:48:41;;;;;;;14.68;7.75;;;12.00;67.90;;;;;;5094273;28;20405;-75
2020/12/06 08:51:23;;;;;;;13.53;7.90;;;11.90;68.30;;;;;;5090961;28;20477;-76
2020/12/06 08:53:49;;;;;;;15.85;8.13;;;11.80;69.30;;;;;;5132740;27;20471;-76
2020/12/06 08:56:35;;;;;;;13.95;7.80;;;11.90;68.50;;;;;;5132081;27;20777;-76
2020/12/06 08:59:08;;;;;;;26.70;15.63;;;12.00;68.50;;;;;;5099991;27;20446;-75
2020/12/06 09:01:47;;;;;;;16.85;9.75;;;12.10;68.40;;;;;;5130773;27;20427;-76
2020/12/06 09:04:17;;;;;;;14.68;8.15;;;12.10;69.20;;;;;;5073676;28;20451;-75
2020/12/06 09:06:44;;;;;;;14.57;8.60;;;12.30;69.40;;;;;;5073867;28;20497;-75
2020/12/06 09:09:13;;;;;;;14.33;9.00;;;12.50;68.50;;;;;;5088969;28;20838;-75
2020/12/06 09:11:39;;;;;;;17.45;9.30;;;12.60;68.20;;;;;;5094319;28;20408;-76
2020/12/06 09:14:06;;;;;;;14.00;8.57;;;12.60;68.20;;;;;;5075365;28;21012;-76
2020/12/06 09:16:38;;;;;;;15.40;8.73;;;12.70;68.00;;;;;;5091795;28;20493;-76
2020/12/06 09:19:06;;;;;;;15.73;9.37;;;12.90;67.40;;;;;;5083490;28;20404;-76
2020/12/06 09:21:33;;;;;;;15.55;9.20;;;13.00;67.20;;;;;;5111555;28;20416;-76
2020/12/06 09:23:59;;;;;;;15.52;9.55;;;13.00;66.50;;;;;;5108872;28;20409;-76
2020/12/06 09:26:26;;;;;;;15.75;10.25;;;12.90;66.70;;;;;;5092756;28;21032;-76
2020/12/06 09:28:55;;;;;;;14.77;9.60;;;12.80;67.30;;;;;;5090311;28;20529;-68
2020/12/06 09:31:22;;;;;;;15.63;10.07;;;12.90;67.50;;;;;;5111242;28;20407;-68
2020/12/06 09:33:50;;;;;;;14.80;9.52;;;12.90;67.70;;;;;;5108555;28;20543;-68
2020/12/06 09:36:16;;;;;;;15.20;9.57;;;12.80;67.90;;;;;;5093373;28;20866;-68
2020/12/06 09:38:42;;;;;;;15.85;9.30;;;12.90;67.50;;;;;;5109548;28;20431;-68
2020/12/06 09:41:12;;;;;;;16.03;9.93;;;12.90;67.40;;;;;;5110364;28;20412;-68
2020/12/06 09:43:43;;;;;;;16.07;10.50;;;12.80;67.70;;;;;;5093522;28;20428;-68
2020/12/06 09:46:10;;;;;;;19.95;10.00;;;12.70;68.50;;;;;;5105638;28;20428;-68
2020/12/06 09:48:40;;;;;;;16.10;10.10;;;12.60;69.20;;;;;;5107236;28;20427;-68
2020/12/06 09:51:07;;;;;;;16.92;10.38;;;12.50;69.80;;;;;;5089856;28;20703;-68
2020/12/06 09:53:37;;;;;;;16.30;10.23;;;12.40;70.00;;;;;;5111034;28;20428;-68
2020/12/06 09:56:03;;;;;;;14.85;9.93;;;12.30;70.20;;;;;;5078586;28;20429;-67
2020/12/06 09:58:30;;;;;;;17.55;10.38;;;12.20;70.50;;;;;;5090243;28;20463;-67
2020/12/06 10:00:57;;;;;;;18.40;10.95;;;12.20;70.90;;;;;;5108378;28;20419;-68
2020/12/06 10:03:23;;;;;;;18.27;11.68;;;12.20;70.80;;;;;;5110673;28;20428;-67
2020/12/06 10:05:50;;;;;;;16.77;11.27;;;12.10;71.20;;;;;;5106972;28;20839;-68
2020/12/06 10:08:16;;;;;;;22.87;12.97;;;12.00;71.70;;;;;;5092956;28;20441;-67
2020/12/06 10:10:43;;;;;;;20.55;13.43;;;12.10;72.00;;;;;;5089919;28;20408;-68
2020/12/06 10:13:09;;;;;;;19.88;12.30;;;12.10;71.50;;;;;;5093188;28;20396;-67
2020/12/06 10:15:36;;;;;;;18.58;12.25;;;12.10;72.00;;;;;;5110849;28;20396;-67
2020/12/06 10:18:03;;;;;;;26.27;13.10;;;12.10;72.50;;;;;;5100920;28;20410;-67
2020/12/06 10:20:30;;;;;;;17.00;10.95;;;12.40;70.80;;;;;;5072872;28;20398;-67
2020/12/06 10:22:56;;;;;;;16.30;10.90;;;12.50;70.90;;;;;;5102406;28;20432;-68
2020/12/06 10:25:23;;;;;;;14.30;9.83;;;12.60;70.30;;;;;;5110600;28;20475;-68
2020/12/06 10:27:51;;;;;;;15.23;9.65;;;12.60;70.20;;;;;;5106934;28;20396;-68
2020/12/06 10:30:18;;;;;;;14.70;9.35;;;12.70;70.60;;;;;;5110083;28;20782;-67
2020/12/06 10:32:44;;;;;;;19.75;9.52;;;12.80;70.00;;;;;;5106739;28;20849;-67
2020/12/06 10:35:10;;;;;;;17.42;9.82;;;12.80;70.30;;;;;;5110347;28;20748;-68
2020/12/06 10:37:37;;;;;;;13.53;9.27;;;12.80;70.70;;;;;;5088890;28;20431;-68
2020/12/06 10:40:03;;;;;;;15.73;9.90;;;12.80;70.40;;;;;;5110383;28;20466;-68
2020/12/06 10:42:30;;;;;;;15.15;9.45;;;12.80;69.80;;;;;;5106769;28;20934;-67
2020/12/06 10:44:56;;;;;;;14.50;9.10;;;12.80;70.00;;;;;;5110194;28;20469;-67
2020/12/06 10:47:23;;;;;;;13.90;9.55;;;12.70;70.40;;;;;;5110473;28;20403;-67
2020/12/06 10:49:49;;;;;;;15.73;9.20;;;12.70;70.40;;;;;;5106985;28;20424;-68
2020/12/06 10:52:16;;;;;;;12.83;9.33;;;12.60;71.30;;;;;;5110581;28;20449;-68
2020/12/06 10:54:46;;;;;;;13.77;9.70;;;12.50;71.20;;;;;;5089458;28;20503;-68
2020/12/06 10:57:15;;;;;;;14.48;9.40;;;12.50;71.40;;;;;;5110475;28;20420;-67
2020/12/06 10:59:41;;;;;;;16.42;9.68;;;12.50;71.50;;;;;;5088600;28;20404;-67
2020/12/06 11:02:07;;;;;;;17.25;10.00;;;12.50;71.70;;;;;;5110217;28;20424;-68
2020/12/06 11:04:34;;;;;;;16.80;10.35;;;12.60;72.10;;;;;;5106618;28;20493;-67
2020/12/06 11:07:01;;;;;;;16.38;9.90;;;12.50;71.70;;;;;;5110171;28;20400;-67
2020/12/06 11:09:27;;;;;;;16.88;10.77;;;12.50;71.70;;;;;;5106989;28;20401;-67
2020/12/06 11:11:54;;;;;;;16.83;10.60;;;12.50;72.20;;;;;;5110390;28;20476;-68
2020/12/06 11:14:21;;;;;;;16.67;9.32;;;12.60;72.20;;;;;;5106594;28;20404;-68
2020/12/06 11:16:51;;;;;;;13.90;9.43;;;12.70;71.70;;;;;;5091460;28;20424;-67
2020/12/06 11:19:18;;;;;;;14.47;9.93;;;12.90;71.60;;;;;;5093479;28;20413;-67
2020/12/06 11:21:45;;;;;;;13.68;9.43;;;13.20;69.50;;;;;;5109379;28;20455;-67
2020/12/06 11:24:11;;;;;;;15.25;9.73;;;13.40;69.10;;;;;;5095542;28;20456;-68
2020/12/06 11:26:38;;;;;;;12.97;9.03;;;13.30;68.90;;;;;;5110047;28;20424;-76
2020/12/06 11:29:07;;;;;;;14.70;9.40;;;13.30;69.30;;;;;;5096679;28;20428;-76
2020/12/06 11:31:36;;;;;;;13.38;9.18;;;13.10;69.00;;;;;;5092534;28;20496;-75
2020/12/06 11:34:03;;;;;;;15.25;9.38;;;12.90;70.10;;;;;;5113281;28;20461;-75
2020/12/06 11:36:31;;;;;;;15.07;9.50;;;12.70;70.60;;;;;;5110179;28;20458;-75
2020/12/06 11:38:58;;;;;;;13.07;9.23;;;12.60;71.20;;;;;;5095890;28;20412;-75
2020/12/06 11:41:26;;;;;;;14.73;9.13;;;12.50;71.90;;;;;;5110273;28;20451;-75
2020/12/06 11:43:52;;;;;;;16.67;9.43;;;12.50;71.90;;;;;;5113679;28;20489;-75
2020/12/06 11:46:19;;;;;;;13.35;9.38;;;12.60;71.30;;;;;;5110090;28;20485;-75
2020/12/06 11:48:46;;;;;;;16.15;9.38;;;12.70;70.80;;;;;;5095615;28;20404;-75
2020/12/06 11:51:14;;;;;;;14.73;9.23;;;12.80;70.60;;;;;;5093710;28;20457;-75
2020/12/06 11:53:43;;;;;;;14.52;9.20;;;12.90;70.60;;;;;;5094776;28;20428;-75
2020/12/06 11:56:13;;;;;;;13.30;8.43;;;13.00;70.00;;;;;;5095980;28;20428;-75
2020/12/06 11:58:44;;;;;;;14.43;9.13;;;13.10;69.70;;;;;;5110794;27;20433;-75
2020/12/06 12:01:13;;;;;;;13.18;9.38;;;13.10;69.60;;;;;;5116017;27;20456;-75
2020/12/06 12:03:40;;;;;;;15.53;9.77;;;12.90;70.00;;;;;;5114102;27;20440;-75
2020/12/06 12:06:08;;;;;;;13.25;9.50;;;12.70;70.60;;;;;;5095389;28;20465;-75
2020/12/06 12:08:40;;;;;;;15.75;9.93;;;12.60;71.00;;;;;;5109624;28;20430;-75
2020/12/06 12:11:10;;;;;;;13.82;9.60;;;12.60;71.30;;;;;;5113127;28;20868;-75
2020/12/06 12:13:42;;;;;;;14.23;10.03;;;12.70;70.90;;;;;;5109726;28;20481;-75
2020/12/06 12:16:09;;;;;;;13.50;9.20;;;12.60;71.20;;;;;;5112930;28;20397;-75
2020/12/06 12:18:35;;;;;;;15.00;10.25;;;12.70;70.60;;;;;;5106372;28;20838;-75
2020/12/06 12:21:02;;;;;;;14.23;9.50;;;12.90;69.80;;;;;;5112709;28;20914;-75
2020/12/06 12:23:30;;;;;;;16.67;9.70;;;12.90;69.70;;;;;;5091447;28;20574;-75
2020/12/06 12:25:59;;;;;;;17.05;10.30;;;12.90;69.90;;;;;;5112515;28;20505;-75
2020/12/06 12:28:31;;;;;;;13.40;9.57;;;12.80;70.00;;;;;;5109236;28;20392;-75
2020/12/06 12:31:00;;;;;;;13.45;9.85;;;12.70;70.20;;;;;;5112362;28;20454;-74
2020/12/06 12:33:26;;;;;;;14.10;9.88;;;12.70;70.10;;;;;;5112566;28;20895;-75
2020/12/06 12:35:53;;;;;;;13.15;9.20;;;12.70;70.10;;;;;;5091190;28;20458;-75
2020/12/06 12:38:20;;;;;;;14.07;9.23;;;12.70;69.90;;;;;;5112542;28;20461;-75
2020/12/06 12:40:46;;;;;;;19.58;9.70;;;12.70;69.70;;;;;;5109310;28;20440;-75
2020/12/06 12:43:12;;;;;;;16.38;9.90;;;12.70;70.00;;;;;;5094433;28;20481;-75
2020/12/06 12:45:42;;;;;;;15.82;9.98;;;12.70;70.30;;;;;;5091144;28;20408;-75
2020/12/06 12:48:08;;;;;;;13.82;10.13;;;12.80;69.90;;;;;;5111329;27;20454;-75